sensor_id;sensor_type;location;lat;lon;timestamp;P1;durP1;ratioP1;P2;durP2;ratioP2
54823;SDS011;40724;53.196;5.980;2023-04-03T00:01:21;3.97;;;2.17;;
54823;SDS011;40724;53.196;5.980;2023-04-03T00:03:48;2.63;;;1.40;;
54823;SDS011;40724;53.196;5.980;2023-04-03T00:06:15;3.33;;;1.60;;
54823;SDS011;40724;53.196;5.980;2023-04-03T00:08:41;4.60;;;1.73;;
54823;SDS011;40724;53.196;5.980;2023-04-03T00:11:07;3.30;;;1.92;;
54823;SDS011;40724;53.196;5.980;2023-04-03T00:13:34;2.95;;;1.50;;
54823;SDS011;40724;53.196;5.980;2023-04-03T00:16:00;3.17;;;1.90;;
54823;SDS011;40724;53.196;5.980;2023-04-03T00:18:28;3.30;;;1.67;;
54823;SDS011;40724;53.196;5.980;2023-04-03T00:20:54;3.55;;;1.95;;
54823;SDS011;40724;53.196;5.980;2023-04-03T00:23:20;4.40;;;1.80;;
54823;SDS011;40724;53.196;5.980;2023-04-03T00:25:48;3.67;;;2.13;;
54823;SDS011;40724;53.196;5.980;2023-04-03T00:28:15;4.72;;;1.98;;
54823;SDS011;40724;53.196;5.980;2023-04-03T00:30:41;4.22;;;1.90;;
54823;SDS011;40724;53.196;5.980;2023-04-03T00:33:09;3.85;;;1.77;;
54823;SDS011;40724;53.196;5.980;2023-04-03T00:35:36;6.10;;;1.92;;
54823;SDS011;40724;53.196;5.980;2023-04-03T00:38:03;3.85;;;1.67;;
54823;SDS011;40724;53.196;5.980;2023-04-03T00:40:32;2.45;;;1.50;;
54823;SDS011;40724;53.196;5.980;2023-04-03T00:42:59;3.20;;;1.65;;
54823;SDS011;40724;53.196;5.980;2023-04-03T00:45:29;4.63;;;1.70;;
54823;SDS011;40724;53.196;5.980;2023-04-03T00:47:55;2.05;;;1.40;;
54823;SDS011;40724;53.196;5.980;2023-04-03T00:50:24;2.47;;;1.38;;
54823;SDS011;40724;53.196;5.980;2023-04-03T00:52:51;2.63;;;1.20;;
54823;SDS011;40724;53.196;5.980;2023-04-03T00:55:17;2.08;;;1.40;;
54823;SDS011;40724;53.196;5.980;2023-04-03T00:57:43;3.83;;;1.95;;
54823;SDS011;40724;53.196;5.980;2023-04-03T01:00:12;2.38;;;1.45;;
54823;SDS011;40724;53.196;5.980;2023-04-03T01:02:40;3.47;;;1.38;;
54823;SDS011;40724;53.196;5.980;2023-04-03T01:05:06;5.70;;;1.60;;
54823;SDS011;40724;53.196;5.980;2023-04-03T01:07:32;2.80;;;1.48;;
54823;SDS011;40724;53.196;5.980;2023-04-03T01:10:01;4.28;;;1.30;;
54823;SDS011;40724;53.196;5.980;2023-04-03T01:12:29;4.32;;;1.98;;
54823;SDS011;40724;53.196;5.980;2023-04-03T01:15:01;2.78;;;1.33;;
54823;SDS011;40724;53.196;5.980;2023-04-03T01:17:38;2.33;;;1.40;;
54823;SDS011;40724;53.196;5.980;2023-04-03T01:22:34;3.78;;;1.65;;
54823;SDS011;40724;53.196;5.980;2023-04-03T01:25:05;2.40;;;1.33;;
54823;SDS011;40724;53.196;5.980;2023-04-03T01:27:31;1.33;;;1.08;;
54823;SDS011;40724;53.196;5.980;2023-04-03T01:29:57;4.43;;;1.65;;
54823;SDS011;40724;53.196;5.980;2023-04-03T01:32:23;4.10;;;1.42;;
54823;SDS011;40724;53.196;5.980;2023-04-03T01:34:50;5.97;;;1.33;;
54823;SDS011;40724;53.196;5.980;2023-04-03T01:37:16;2.75;;;1.33;;
54823;SDS011;40724;53.196;5.980;2023-04-03T01:39:42;3.08;;;1.35;;
54823;SDS011;40724;53.196;5.980;2023-04-03T01:42:08;3.33;;;0.98;;
54823;SDS011;40724;53.196;5.980;2023-04-03T01:44:35;2.38;;;1.17;;
54823;SDS011;40724;53.196;5.980;2023-04-03T01:47:01;1.98;;;1.33;;
54823;SDS011;40724;53.196;5.980;2023-04-03T01:49:27;1.70;;;1.27;;
54823;SDS011;40724;53.196;5.980;2023-04-03T01:51:53;3.25;;;0.90;;
54823;SDS011;40724;53.196;5.980;2023-04-03T01:54:20;3.20;;;1.50;;
54823;SDS011;40724;53.196;5.980;2023-04-03T01:56:46;2.20;;;1.17;;
54823;SDS011;40724;53.196;5.980;2023-04-03T01:59:12;2.55;;;1.20;;
54823;SDS011;40724;53.196;5.980;2023-04-03T02:01:38;3.97;;;1.60;;
54823;SDS011;40724;53.196;5.980;2023-04-03T02:04:04;2.63;;;1.17;;
54823;SDS011;40724;53.196;5.980;2023-04-03T02:06:31;2.35;;;1.23;;
54823;SDS011;40724;53.196;5.980;2023-04-03T02:08:57;2.38;;;1.20;;
54823;SDS011;40724;53.196;5.980;2023-04-03T02:11:23;2.45;;;1.35;;
54823;SDS011;40724;53.196;5.980;2023-04-03T02:13:49;3.88;;;1.50;;
54823;SDS011;40724;53.196;5.980;2023-04-03T02:16:15;4.75;;;1.50;;
54823;SDS011;40724;53.196;5.980;2023-04-03T02:18:42;4.00;;;1.25;;
54823;SDS011;40724;53.196;5.980;2023-04-03T02:21:08;2.10;;;1.27;;
54823;SDS011;40724;53.196;5.980;2023-04-03T02:23:34;5.65;;;1.35;;
54823;SDS011;40724;53.196;5.980;2023-04-03T02:26:03;4.07;;;1.40;;
54823;SDS011;40724;53.196;5.980;2023-04-03T02:28:29;2.45;;;1.75;;
54823;SDS011;40724;53.196;5.980;2023-04-03T02:30:55;4.25;;;1.48;;
54823;SDS011;40724;53.196;5.980;2023-04-03T02:33:21;3.85;;;1.70;;
54823;SDS011;40724;53.196;5.980;2023-04-03T02:35:51;2.97;;;1.58;;
54823;SDS011;40724;53.196;5.980;2023-04-03T02:38:18;6.55;;;1.55;;
54823;SDS011;40724;53.196;5.980;2023-04-03T02:40:44;1.63;;;1.00;;
54823;SDS011;40724;53.196;5.980;2023-04-03T02:43:10;2.35;;;1.60;;
54823;SDS011;40724;53.196;5.980;2023-04-03T02:45:36;2.08;;;1.42;;
54823;SDS011;40724;53.196;5.980;2023-04-03T02:48:03;3.55;;;1.98;;
54823;SDS011;40724;53.196;5.980;2023-04-03T02:50:29;3.20;;;1.25;;
54823;SDS011;40724;53.196;5.980;2023-04-03T02:52:55;3.63;;;1.52;;
54823;SDS011;40724;53.196;5.980;2023-04-03T02:55:21;2.50;;;1.67;;
54823;SDS011;40724;53.196;5.980;2023-04-03T02:57:47;2.35;;;1.50;;
54823;SDS011;40724;53.196;5.980;2023-04-03T03:00:14;2.42;;;1.00;;
54823;SDS011;40724;53.196;5.980;2023-04-03T03:02:40;4.03;;;1.60;;
54823;SDS011;40724;53.196;5.980;2023-04-03T03:05:06;4.70;;;1.55;;
54823;SDS011;40724;53.196;5.980;2023-04-03T03:07:32;1.55;;;1.17;;
54823;SDS011;40724;53.196;5.980;2023-04-03T03:09:59;6.53;;;2.15;;
54823;SDS011;40724;53.196;5.980;2023-04-03T03:12:25;4.68;;;1.80;;
54823;SDS011;40724;53.196;5.980;2023-04-03T03:14:51;4.38;;;1.70;;
54823;SDS011;40724;53.196;5.980;2023-04-03T03:17:17;6.75;;;1.80;;
54823;SDS011;40724;53.196;5.980;2023-04-03T03:19:44;1.98;;;1.17;;
54823;SDS011;40724;53.196;5.980;2023-04-03T03:22:11;10.57;;;2.75;;
54823;SDS011;40724;53.196;5.980;2023-04-03T03:24:37;3.88;;;1.75;;
54823;SDS011;40724;53.196;5.980;2023-04-03T03:27:03;2.35;;;1.20;;
54823;SDS011;40724;53.196;5.980;2023-04-03T03:29:30;4.50;;;1.17;;
54823;SDS011;40724;53.196;5.980;2023-04-03T03:31:56;7.47;;;2.25;;
54823;SDS011;40724;53.196;5.980;2023-04-03T03:34:22;3.58;;;1.60;;
54823;SDS011;40724;53.196;5.980;2023-04-03T03:36:48;2.22;;;1.33;;
54823;SDS011;40724;53.196;5.980;2023-04-03T03:39:14;3.00;;;1.67;;
54823;SDS011;40724;53.196;5.980;2023-04-03T03:41:41;6.68;;;1.63;;
54823;SDS011;40724;53.196;5.980;2023-04-03T03:44:07;5.70;;;1.77;;
54823;SDS011;40724;53.196;5.980;2023-04-03T03:46:33;2.15;;;1.23;;
54823;SDS011;40724;53.196;5.980;2023-04-03T03:48:59;3.60;;;1.48;;
54823;SDS011;40724;53.196;5.980;2023-04-03T03:51:26;3.20;;;1.88;;
54823;SDS011;40724;53.196;5.980;2023-04-03T03:53:52;3.47;;;1.58;;
54823;SDS011;40724;53.196;5.980;2023-04-03T03:56:18;2.92;;;1.88;;
54823;SDS011;40724;53.196;5.980;2023-04-03T03:58:45;3.38;;;1.80;;
54823;SDS011;40724;53.196;5.980;2023-04-03T04:01:11;3.15;;;1.95;;
54823;SDS011;40724;53.196;5.980;2023-04-03T04:03:37;3.60;;;1.85;;
54823;SDS011;40724;53.196;5.980;2023-04-03T04:06:03;6.57;;;1.98;;
54823;SDS011;40724;53.196;5.980;2023-04-03T04:08:30;2.70;;;1.63;;
54823;SDS011;40724;53.196;5.980;2023-04-03T04:10:56;4.38;;;1.85;;
54823;SDS011;40724;53.196;5.980;2023-04-03T04:13:22;3.90;;;2.25;;
54823;SDS011;40724;53.196;5.980;2023-04-03T04:15:48;4.55;;;1.90;;
54823;SDS011;40724;53.196;5.980;2023-04-03T04:18:14;3.20;;;2.22;;
54823;SDS011;40724;53.196;5.980;2023-04-03T04:20:40;3.35;;;1.80;;
54823;SDS011;40724;53.196;5.980;2023-04-03T04:23:06;7.63;;;2.13;;
54823;SDS011;40724;53.196;5.980;2023-04-03T04:25:33;4.55;;;2.17;;
54823;SDS011;40724;53.196;5.980;2023-04-03T04:27:59;6.32;;;2.33;;
54823;SDS011;40724;53.196;5.980;2023-04-03T04:30:25;4.50;;;2.22;;
54823;SDS011;40724;53.196;5.980;2023-04-03T04:32:52;2.88;;;2.03;;
54823;SDS011;40724;53.196;5.980;2023-04-03T04:35:18;6.43;;;1.90;;
54823;SDS011;40724;53.196;5.980;2023-04-03T04:37:45;5.68;;;2.47;;
54823;SDS011;40724;53.196;5.980;2023-04-03T04:40:11;2.38;;;1.52;;
54823;SDS011;40724;53.196;5.980;2023-04-03T04:42:37;6.68;;;2.30;;
54823;SDS011;40724;53.196;5.980;2023-04-03T04:45:03;5.93;;;2.03;;
54823;SDS011;40724;53.196;5.980;2023-04-03T04:47:29;6.65;;;1.88;;
54823;SDS011;40724;53.196;5.980;2023-04-03T04:49:55;3.90;;;2.30;;
54823;SDS011;40724;53.196;5.980;2023-04-03T04:52:21;4.30;;;2.13;;
54823;SDS011;40724;53.196;5.980;2023-04-03T04:54:48;6.57;;;2.17;;
54823;SDS011;40724;53.196;5.980;2023-04-03T04:57:14;5.30;;;2.42;;
54823;SDS011;40724;53.196;5.980;2023-04-03T04:59:40;3.70;;;1.80;;
54823;SDS011;40724;53.196;5.980;2023-04-03T05:02:06;3.38;;;2.22;;
54823;SDS011;40724;53.196;5.980;2023-04-03T05:04:32;4.90;;;2.20;;
54823;SDS011;40724;53.196;5.980;2023-04-03T05:06:59;5.70;;;2.10;;
54823;SDS011;40724;53.196;5.980;2023-04-03T05:09:25;4.60;;;1.95;;
54823;SDS011;40724;53.196;5.980;2023-04-03T05:11:51;3.35;;;1.98;;
54823;SDS011;40724;53.196;5.980;2023-04-03T05:14:17;5.90;;;2.50;;
54823;SDS011;40724;53.196;5.980;2023-04-03T05:16:43;5.93;;;2.38;;
54823;SDS011;40724;53.196;5.980;2023-04-03T05:19:09;8.23;;;3.15;;
54823;SDS011;40724;53.196;5.980;2023-04-03T05:21:35;4.15;;;2.22;;
54823;SDS011;40724;53.196;5.980;2023-04-03T05:24:02;4.78;;;2.53;;
54823;SDS011;40724;53.196;5.980;2023-04-03T05:26:29;4.60;;;2.28;;
54823;SDS011;40724;53.196;5.980;2023-04-03T05:28:55;3.47;;;1.85;;
54823;SDS011;40724;53.196;5.980;2023-04-03T05:31:21;4.25;;;2.20;;
54823;SDS011;40724;53.196;5.980;2023-04-03T05:33:48;6.53;;;2.28;;
54823;SDS011;40724;53.196;5.980;2023-04-03T05:36:14;5.90;;;2.30;;
54823;SDS011;40724;53.196;5.980;2023-04-03T05:38:40;3.72;;;2.08;;
54823;SDS011;40724;53.196;5.980;2023-04-03T05:41:07;5.15;;;3.25;;
54823;SDS011;40724;53.196;5.980;2023-04-03T05:43:33;4.65;;;2.10;;
54823;SDS011;40724;53.196;5.980;2023-04-03T05:46:02;2.97;;;2.22;;
54823;SDS011;40724;53.196;5.980;2023-04-03T05:48:29;6.20;;;2.38;;
54823;SDS011;40724;53.196;5.980;2023-04-03T05:50:55;4.45;;;1.92;;
54823;SDS011;40724;53.196;5.980;2023-04-03T05:53:22;6.88;;;2.58;;
54823;SDS011;40724;53.196;5.980;2023-04-03T05:55:50;5.18;;;3.10;;
54823;SDS011;40724;53.196;5.980;2023-04-03T05:58:16;5.65;;;2.40;;
54823;SDS011;40724;53.196;5.980;2023-04-03T06:00:43;6.70;;;2.33;;
54823;SDS011;40724;53.196;5.980;2023-04-03T06:03:09;4.40;;;2.25;;
54823;SDS011;40724;53.196;5.980;2023-04-03T06:05:35;7.45;;;2.90;;
54823;SDS011;40724;53.196;5.980;2023-04-03T06:08:01;6.10;;;2.97;;
54823;SDS011;40724;53.196;5.980;2023-04-03T06:10:28;6.47;;;2.88;;
54823;SDS011;40724;53.196;5.980;2023-04-03T06:12:54;5.30;;;2.38;;
54823;SDS011;40724;53.196;5.980;2023-04-03T06:15:21;3.80;;;2.40;;
54823;SDS011;40724;53.196;5.980;2023-04-03T06:17:47;7.22;;;2.70;;
54823;SDS011;40724;53.196;5.980;2023-04-03T06:20:13;5.28;;;2.55;;
54823;SDS011;40724;53.196;5.980;2023-04-03T06:22:39;8.60;;;2.20;;
54823;SDS011;40724;53.196;5.980;2023-04-03T06:25:07;5.72;;;1.77;;
54823;SDS011;40724;53.196;5.980;2023-04-03T06:27:34;3.97;;;2.47;;
54823;SDS011;40724;53.196;5.980;2023-04-03T06:30:00;6.63;;;2.72;;
54823;SDS011;40724;53.196;5.980;2023-04-03T06:32:26;8.98;;;3.80;;
54823;SDS011;40724;53.196;5.980;2023-04-03T06:34:53;6.07;;;2.22;;
54823;SDS011;40724;53.196;5.980;2023-04-03T06:37:21;7.82;;;3.25;;
54823;SDS011;40724;53.196;5.980;2023-04-03T06:39:51;11.45;;;2.95;;
54823;SDS011;40724;53.196;5.980;2023-04-03T06:42:17;5.35;;;2.60;;
54823;SDS011;40724;53.196;5.980;2023-04-03T06:44:43;6.40;;;2.80;;
54823;SDS011;40724;53.196;5.980;2023-04-03T06:47:11;7.68;;;2.63;;
54823;SDS011;40724;53.196;5.980;2023-04-03T06:49:38;7.32;;;2.80;;
54823;SDS011;40724;53.196;5.980;2023-04-03T06:52:04;4.85;;;2.40;;
54823;SDS011;40724;53.196;5.980;2023-04-03T06:54:31;3.80;;;2.70;;
54823;SDS011;40724;53.196;5.980;2023-04-03T06:56:57;5.22;;;2.80;;
54823;SDS011;40724;53.196;5.980;2023-04-03T06:59:24;5.97;;;2.65;;
54823;SDS011;40724;53.196;5.980;2023-04-03T07:01:50;5.38;;;2.40;;
54823;SDS011;40724;53.196;5.980;2023-04-03T07:04:16;5.82;;;2.90;;
54823;SDS011;40724;53.196;5.980;2023-04-03T07:06:45;7.68;;;2.90;;
54823;SDS011;40724;53.196;5.980;2023-04-03T07:09:12;10.85;;;3.13;;
54823;SDS011;40724;53.196;5.980;2023-04-03T07:11:38;8.48;;;2.83;;
54823;SDS011;40724;53.196;5.980;2023-04-03T07:14:04;7.22;;;2.50;;
54823;SDS011;40724;53.196;5.980;2023-04-03T07:16:33;6.13;;;2.38;;
54823;SDS011;40724;53.196;5.980;2023-04-03T07:18:59;9.30;;;3.70;;
54823;SDS011;40724;53.196;5.980;2023-04-03T07:21:27;5.97;;;2.50;;
54823;SDS011;40724;53.196;5.980;2023-04-03T07:23:53;10.82;;;3.85;;
54823;SDS011;40724;53.196;5.980;2023-04-03T07:26:19;5.13;;;2.47;;
54823;SDS011;40724;53.196;5.980;2023-04-03T07:28:46;4.97;;;2.88;;
54823;SDS011;40724;53.196;5.980;2023-04-03T07:31:14;4.32;;;2.58;;
54823;SDS011;40724;53.196;5.980;2023-04-03T07:33:41;4.55;;;2.58;;
54823;SDS011;40724;53.196;5.980;2023-04-03T07:36:07;4.45;;;2.38;;
54823;SDS011;40724;53.196;5.980;2023-04-03T07:38:35;9.95;;;2.63;;
54823;SDS011;40724;53.196;5.980;2023-04-03T07:41:01;3.80;;;2.03;;
54823;SDS011;40724;53.196;5.980;2023-04-03T07:43:28;8.35;;;2.55;;
54823;SDS011;40724;53.196;5.980;2023-04-03T07:45:54;7.70;;;2.40;;
54823;SDS011;40724;53.196;5.980;2023-04-03T07:48:21;5.88;;;2.88;;
54823;SDS011;40724;53.196;5.980;2023-04-03T07:50:48;7.82;;;2.47;;
54823;SDS011;40724;53.196;5.980;2023-04-03T07:53:14;9.07;;;2.40;;
54823;SDS011;40724;53.196;5.980;2023-04-03T07:55:41;7.65;;;2.42;;
54823;SDS011;40724;53.196;5.980;2023-04-03T07:58:11;6.72;;;2.30;;
54823;SDS011;40724;53.196;5.980;2023-04-03T08:00:38;4.88;;;2.28;;
54823;SDS011;40724;53.196;5.980;2023-04-03T08:03:04;4.38;;;2.30;;
54823;SDS011;40724;53.196;5.980;2023-04-03T08:05:31;5.20;;;2.15;;
54823;SDS011;40724;53.196;5.980;2023-04-03T08:07:57;6.35;;;2.45;;
54823;SDS011;40724;53.196;5.980;2023-04-03T08:10:24;5.18;;;2.30;;
54823;SDS011;40724;53.196;5.980;2023-04-03T08:12:50;6.75;;;2.00;;
54823;SDS011;40724;53.196;5.980;2023-04-03T08:15:16;5.55;;;2.47;;
54823;SDS011;40724;53.196;5.980;2023-04-03T08:17:42;4.28;;;1.98;;
54823;SDS011;40724;53.196;5.980;2023-04-03T08:20:09;6.38;;;2.55;;
54823;SDS011;40724;53.196;5.980;2023-04-03T08:22:36;2.88;;;1.77;;
54823;SDS011;40724;53.196;5.980;2023-04-03T08:25:02;8.20;;;2.47;;
54823;SDS011;40724;53.196;5.980;2023-04-03T08:27:28;5.55;;;1.98;;
54823;SDS011;40724;53.196;5.980;2023-04-03T08:29:55;4.05;;;2.08;;
54823;SDS011;40724;53.196;5.980;2023-04-03T08:32:22;4.93;;;2.00;;
54823;SDS011;40724;53.196;5.980;2023-04-03T08:34:48;6.07;;;2.08;;
54823;SDS011;40724;53.196;5.980;2023-04-03T08:37:14;5.90;;;2.05;;
54823;SDS011;40724;53.196;5.980;2023-04-03T08:39:41;6.20;;;2.40;;
54823;SDS011;40724;53.196;5.980;2023-04-03T08:42:16;5.05;;;2.10;;
54823;SDS011;40724;53.196;5.980;2023-04-03T08:44:46;7.03;;;2.25;;
54823;SDS011;40724;53.196;5.980;2023-04-03T08:49:53;3.35;;;1.40;;
54823;SDS011;40724;53.196;5.980;2023-04-03T08:52:31;3.25;;;1.60;;
54823;SDS011;40724;53.196;5.980;2023-04-03T08:54:59;25.20;;;7.25;;
54823;SDS011;40724;53.196;5.980;2023-04-03T08:57:28;14.85;;;4.57;;
54823;SDS011;40724;53.196;5.980;2023-04-03T08:59:55;7.95;;;3.08;;
54823;SDS011;40724;53.196;5.980;2023-04-03T09:02:30;18.20;;;5.63;;
54823;SDS011;40724;53.196;5.980;2023-04-03T09:04:57;4.03;;;1.20;;
54823;SDS011;40724;53.196;5.980;2023-04-03T09:07:37;7.30;;;1.52;;
54823;SDS011;40724;53.196;5.980;2023-04-03T09:10:05;3.70;;;1.45;;
54823;SDS011;40724;53.196;5.980;2023-04-03T09:12:33;5.40;;;1.20;;
54823;SDS011;40724;53.196;5.980;2023-04-03T09:17:46;4.13;;;1.45;;
54823;SDS011;40724;53.196;5.980;2023-04-03T09:23:01;2.47;;;1.27;;
54823;SDS011;40724;53.196;5.980;2023-04-03T09:25:34;4.40;;;1.30;;
54823;SDS011;40724;53.196;5.980;2023-04-03T09:28:02;2.50;;;1.20;;
54823;SDS011;40724;53.196;5.980;2023-04-03T09:30:34;7.20;;;1.48;;
54823;SDS011;40724;53.196;5.980;2023-04-03T09:33:00;2.08;;;1.30;;
54823;SDS011;40724;53.196;5.980;2023-04-03T09:37:55;3.67;;;1.60;;
54823;SDS011;40724;53.196;5.980;2023-04-03T09:43:36;2.67;;;0.93;;
54823;SDS011;40724;53.196;5.980;2023-04-03T09:45:37;2.47;;;1.45;;
54823;SDS011;40724;53.196;5.980;2023-04-03T09:48:05;1.75;;;0.85;;
54823;SDS011;40724;53.196;5.980;2023-04-03T09:50:32;1.13;;;0.90;;
54823;SDS011;40724;53.196;5.980;2023-04-03T09:53:01;3.33;;;0.98;;
54823;SDS011;40724;53.196;5.980;2023-04-03T09:55:30;4.78;;;1.27;;
54823;SDS011;40724;53.196;5.980;2023-04-03T09:58:03;3.20;;;1.40;;
54823;SDS011;40724;53.196;5.980;2023-04-03T10:00:38;3.58;;;1.08;;
54823;SDS011;40724;53.196;5.980;2023-04-03T10:03:05;2.25;;;1.08;;
54823;SDS011;40724;53.196;5.980;2023-04-03T10:05:48;2.40;;;1.10;;
54823;SDS011;40724;53.196;5.980;2023-04-03T10:10:43;4.90;;;1.15;;
54823;SDS011;40724;53.196;5.980;2023-04-03T10:13:14;3.42;;;1.45;;
54823;SDS011;40724;53.196;5.980;2023-04-03T10:21:09;2.65;;;1.05;;
54823;SDS011;40724;53.196;5.980;2023-04-03T10:24:21;3.00;;;1.33;;
54823;SDS011;40724;53.196;5.980;2023-04-03T10:52:52;1.90;;;0.73;;
54823;SDS011;40724;53.196;5.980;2023-04-03T10:57:54;1.38;;;0.73;;
54823;SDS011;40724;53.196;5.980;2023-04-03T11:00:42;2.45;;;0.77;;
54823;SDS011;40724;53.196;5.980;2023-04-03T11:03:11;3.13;;;0.88;;
54823;SDS011;40724;53.196;5.980;2023-04-03T11:05:42;1.80;;;0.63;;
54823;SDS011;40724;53.196;5.980;2023-04-03T11:10:42;2.42;;;1.00;;
54823;SDS011;40724;53.196;5.980;2023-04-03T11:13:21;2.95;;;1.10;;
54823;SDS011;40724;53.196;5.980;2023-04-03T11:15:48;1.73;;;0.90;;
54823;SDS011;40724;53.196;5.980;2023-04-03T11:18:17;1.95;;;1.00;;
54823;SDS011;40724;53.196;5.980;2023-04-03T11:20:47;4.30;;;1.35;;
54823;SDS011;40724;53.196;5.980;2023-04-03T11:23:21;2.22;;;0.88;;
54823;SDS011;40724;53.196;5.980;2023-04-03T11:25:50;1.52;;;0.90;;
54823;SDS011;40724;53.196;5.980;2023-04-03T11:28:17;2.85;;;1.75;;
54823;SDS011;40724;53.196;5.980;2023-04-03T11:35:46;2.20;;;1.38;;
54823;SDS011;40724;53.196;5.980;2023-04-03T11:38:15;4.32;;;1.23;;
54823;SDS011;40724;53.196;5.980;2023-04-03T11:40:47;3.00;;;0.85;;
54823;SDS011;40724;53.196;5.980;2023-04-03T11:45:50;3.65;;;0.90;;
54823;SDS011;40724;53.196;5.980;2023-04-03T11:51:00;5.82;;;1.25;;
54823;SDS011;40724;53.196;5.980;2023-04-03T11:53:35;2.42;;;0.98;;
54823;SDS011;40724;53.196;5.980;2023-04-03T12:01:51;6.90;;;1.70;;
54823;SDS011;40724;53.196;5.980;2023-04-03T12:04:19;2.33;;;1.65;;
54823;SDS011;40724;53.196;5.980;2023-04-03T12:11:47;4.10;;;1.20;;
54823;SDS011;40724;53.196;5.980;2023-04-03T12:14:15;1.75;;;1.20;;
54823;SDS011;40724;53.196;5.980;2023-04-03T12:16:45;4.50;;;1.17;;
54823;SDS011;40724;53.196;5.980;2023-04-03T12:19:32;2.83;;;0.88;;
54823;SDS011;40724;53.196;5.980;2023-04-03T12:30:22;2.63;;;1.05;;
54823;SDS011;40724;53.196;5.980;2023-04-03T12:37:43;3.78;;;1.55;;
54823;SDS011;40724;53.196;5.980;2023-04-03T12:40:57;1.42;;;0.80;;
54823;SDS011;40724;53.196;5.980;2023-04-03T12:48:26;4.35;;;1.15;;
54823;SDS011;40724;53.196;5.980;2023-04-03T12:50:52;2.65;;;1.00;;
54823;SDS011;40724;53.196;5.980;2023-04-03T12:53:19;2.25;;;1.02;;
54823;SDS011;40724;53.196;5.980;2023-04-03T12:55:47;1.65;;;0.98;;
54823;SDS011;40724;53.196;5.980;2023-04-03T12:58:27;4.53;;;1.48;;
54823;SDS011;40724;53.196;5.980;2023-04-03T13:01:03;5.13;;;1.27;;
54823;SDS011;40724;53.196;5.980;2023-04-03T13:03:30;4.90;;;1.27;;
54823;SDS011;40724;53.196;5.980;2023-04-03T13:05:58;3.53;;;1.42;;
54823;SDS011;40724;53.196;5.980;2023-04-03T13:08:26;2.25;;;1.00;;
54823;SDS011;40724;53.196;5.980;2023-04-03T13:10:56;2.10;;;1.17;;
54823;SDS011;40724;53.196;5.980;2023-04-03T13:13:26;2.30;;;1.20;;
54823;SDS011;40724;53.196;5.980;2023-04-03T13:15:53;2.97;;;1.45;;
54823;SDS011;40724;53.196;5.980;2023-04-03T13:18:27;3.20;;;1.52;;
54823;SDS011;40724;53.196;5.980;2023-04-03T13:20:57;2.80;;;0.93;;
54823;SDS011;40724;53.196;5.980;2023-04-03T13:23:27;3.95;;;1.60;;
54823;SDS011;40724;53.196;5.980;2023-04-03T13:25:55;4.05;;;1.40;;
54823;SDS011;40724;53.196;5.980;2023-04-03T13:28:26;4.45;;;1.40;;
54823;SDS011;40724;53.196;5.980;2023-04-03T13:33:27;3.58;;;1.08;;
54823;SDS011;40724;53.196;5.980;2023-04-03T13:36:04;3.35;;;1.05;;
54823;SDS011;40724;53.196;5.980;2023-04-03T13:38:43;3.03;;;1.45;;
54823;SDS011;40724;53.196;5.980;2023-04-03T13:43:56;4.00;;;1.08;;
54823;SDS011;40724;53.196;5.980;2023-04-03T13:46:24;2.20;;;0.90;;
54823;SDS011;40724;53.196;5.980;2023-04-03T13:48:53;4.38;;;1.38;;
54823;SDS011;40724;53.196;5.980;2023-04-03T13:51:22;1.83;;;1.05;;
54823;SDS011;40724;53.196;5.980;2023-04-03T13:53:55;3.20;;;1.35;;
54823;SDS011;40724;53.196;5.980;2023-04-03T13:56:29;2.65;;;1.30;;
54823;SDS011;40724;53.196;5.980;2023-04-03T13:59:05;4.55;;;1.38;;
54823;SDS011;40724;53.196;5.980;2023-04-03T14:04:51;3.85;;;1.27;;
54823;SDS011;40724;53.196;5.980;2023-04-03T14:07:18;3.53;;;1.10;;
54823;SDS011;40724;53.196;5.980;2023-04-03T14:09:46;6.55;;;1.48;;
54823;SDS011;40724;53.196;5.980;2023-04-03T14:12:31;4.78;;;1.75;;
54823;SDS011;40724;53.196;5.980;2023-04-03T14:14:59;3.45;;;1.70;;
54823;SDS011;40724;53.196;5.980;2023-04-03T14:17:26;3.92;;;1.38;;
54823;SDS011;40724;53.196;5.980;2023-04-03T14:19:53;3.70;;;1.38;;
54823;SDS011;40724;53.196;5.980;2023-04-03T14:22:22;4.95;;;1.60;;
54823;SDS011;40724;53.196;5.980;2023-04-03T14:24:48;4.03;;;1.25;;
54823;SDS011;40724;53.196;5.980;2023-04-03T14:27:20;2.67;;;1.35;;
54823;SDS011;40724;53.196;5.980;2023-04-03T14:29:46;2.08;;;1.40;;
54823;SDS011;40724;53.196;5.980;2023-04-03T14:32:14;2.83;;;1.10;;
54823;SDS011;40724;53.196;5.980;2023-04-03T14:34:41;4.82;;;1.73;;
54823;SDS011;40724;53.196;5.980;2023-04-03T14:37:15;2.30;;;0.90;;
54823;SDS011;40724;53.196;5.980;2023-04-03T14:39:42;2.03;;;1.15;;
54823;SDS011;40724;53.196;5.980;2023-04-03T14:42:13;2.92;;;1.35;;
54823;SDS011;40724;53.196;5.980;2023-04-03T14:44:40;5.25;;;1.70;;
54823;SDS011;40724;53.196;5.980;2023-04-03T14:47:13;4.13;;;1.30;;
54823;SDS011;40724;53.196;5.980;2023-04-03T14:49:40;2.35;;;1.02;;
54823;SDS011;40724;53.196;5.980;2023-04-03T14:52:06;2.53;;;1.30;;
54823;SDS011;40724;53.196;5.980;2023-04-03T14:54:32;4.50;;;1.50;;
54823;SDS011;40724;53.196;5.980;2023-04-03T14:56:59;2.83;;;1.02;;
54823;SDS011;40724;53.196;5.980;2023-04-03T14:59:26;3.58;;;1.38;;
54823;SDS011;40724;53.196;5.980;2023-04-03T15:01:52;3.78;;;1.45;;
54823;SDS011;40724;53.196;5.980;2023-04-03T15:04:19;5.43;;;1.83;;
54823;SDS011;40724;53.196;5.980;2023-04-03T15:06:46;3.03;;;1.38;;
54823;SDS011;40724;53.196;5.980;2023-04-03T15:14:12;5.05;;;1.85;;
54823;SDS011;40724;53.196;5.980;2023-04-03T15:16:38;4.22;;;1.95;;
54823;SDS011;40724;53.196;5.980;2023-04-03T15:19:04;3.60;;;1.80;;
54823;SDS011;40724;53.196;5.980;2023-04-03T15:21:31;3.50;;;1.70;;
54823;SDS011;40724;53.196;5.980;2023-04-03T15:23:57;2.85;;;1.50;;
54823;SDS011;40724;53.196;5.980;2023-04-03T15:26:23;5.88;;;1.40;;
54823;SDS011;40724;53.196;5.980;2023-04-03T15:28:50;5.15;;;1.40;;
54823;SDS011;40724;53.196;5.980;2023-04-03T15:31:16;5.10;;;1.30;;
54823;SDS011;40724;53.196;5.980;2023-04-03T15:33:42;4.60;;;1.77;;
54823;SDS011;40724;53.196;5.980;2023-04-03T15:36:08;6.90;;;1.90;;
54823;SDS011;40724;53.196;5.980;2023-04-03T15:38:35;2.95;;;1.25;;
54823;SDS011;40724;53.196;5.980;2023-04-03T15:41:03;3.03;;;1.30;;
54823;SDS011;40724;53.196;5.980;2023-04-03T15:43:30;2.40;;;1.05;;
54823;SDS011;40724;53.196;5.980;2023-04-03T15:45:56;2.42;;;1.30;;
54823;SDS011;40724;53.196;5.980;2023-04-03T15:48:24;2.65;;;1.10;;
54823;SDS011;40724;53.196;5.980;2023-04-03T15:50:51;2.85;;;1.33;;
54823;SDS011;40724;53.196;5.980;2023-04-03T15:53:17;3.97;;;1.50;;
54823;SDS011;40724;53.196;5.980;2023-04-03T15:55:43;3.13;;;1.10;;
54823;SDS011;40724;53.196;5.980;2023-04-03T15:58:09;2.58;;;1.30;;
54823;SDS011;40724;53.196;5.980;2023-04-03T16:00:36;3.30;;;1.40;;
54823;SDS011;40724;53.196;5.980;2023-04-03T16:03:07;5.18;;;1.55;;
54823;SDS011;40724;53.196;5.980;2023-04-03T16:05:35;2.60;;;1.13;;
54823;SDS011;40724;53.196;5.980;2023-04-03T16:08:02;2.58;;;1.00;;
54823;SDS011;40724;53.196;5.980;2023-04-03T16:10:30;1.27;;;0.82;;
54823;SDS011;40724;53.196;5.980;2023-04-03T16:12:56;3.60;;;1.20;;
54823;SDS011;40724;53.196;5.980;2023-04-03T16:15:22;4.43;;;1.15;;
54823;SDS011;40724;53.196;5.980;2023-04-03T16:17:49;1.60;;;0.77;;
54823;SDS011;40724;53.196;5.980;2023-04-03T16:20:15;1.77;;;1.00;;
54823;SDS011;40724;53.196;5.980;2023-04-03T16:22:43;2.90;;;1.08;;
54823;SDS011;40724;53.196;5.980;2023-04-03T16:25:10;5.13;;;1.20;;
54823;SDS011;40724;53.196;5.980;2023-04-03T16:27:36;1.95;;;0.90;;
54823;SDS011;40724;53.196;5.980;2023-04-03T16:30:03;2.03;;;1.60;;
54823;SDS011;40724;53.196;5.980;2023-04-03T16:32:30;8.60;;;2.42;;
54823;SDS011;40724;53.196;5.980;2023-04-03T16:34:57;9.10;;;4.22;;
54823;SDS011;40724;53.196;5.980;2023-04-03T16:37:23;2.60;;;1.33;;
54823;SDS011;40724;53.196;5.980;2023-04-03T16:39:49;5.65;;;2.03;;